Terminal Aerodrome Forecast
Issued by NWS

Home | Current Version | Previous Version | Text Only | Print | Product List | Glossary Off
Versions: 1 2 3 4 5 6 7 8 9 10 11 12 13 14 15 16 17 18 19 20 21 22 23 24 25

000
FTUS41 KCTP 242335
TAFBFD
TAF
KBFD 242335Z 2500/2524 25007KT P6SM BKN040
     FM250300 26007KT P6SM OVC015
     FM250500 26008KT P6SM OVC007
     FM251000 28007KT 4SM BR OVC003
     FM251600 35007KT 2SM -DZ BR OVC003
     FM251900 08006KT 5SM BR BKN005 OVC015=

USA.gov is the U.S. government's official web portal to all federal, state and local government web resources and services.